Time;durP1;ratioP1;P1;durP2;ratioP2;P2;SDS_P1;SDS_P2;PMS_P1;PMS_P2;Temp;Humidity;BMP_temperature;BMP_pressure;BME280_temperature;BME280_humidity;BME280_pressure;Samples;Min_cycle;Max_cycle;Signal;HPM_P1;HPM_P2
2021/06/14 00:00:57;;;;;;;5.50;2.08;;;;;;;12.11;72.63;101202.41;1689568;82;25864;-75
2021/06/14 00:03:24;;;;;;;7.72;2.05;;;;;;;12.10;72.72;101207.44;1665111;83;25854;-75
2021/06/14 00:05:51;;;;;;;8.95;1.92;;;;;;;12.09;72.71;101208.97;1589562;86;26469;-75
2021/06/14 00:08:21;;;;;;;7.50;1.77;;;;;;;12.07;72.79;101206.48;1603193;85;28317;-75
2021/06/14 00:10:52;;;;;;;7.03;2.02;;;;;;;12.03;72.80;101202.48;1669674;84;25838;-75
2021/06/14 00:13:19;;;;;;;6.25;1.50;;;;;;;12.02;72.85;101203.98;1612823;86;25889;-75
2021/06/14 00:15:47;;;;;;;5.50;1.95;;;;;;;12.00;72.94;101206.86;1602857;85;25945;-75
2021/06/14 00:18:16;;;;;;;8.88;1.92;;;;;;;11.98;72.87;101210.23;1622820;86;25816;-75
2021/06/14 00:20:54;;;;;;;8.28;2.60;;;;;;;11.96;72.94;101212.27;1645238;85;27512;-75
2021/06/14 00:23:24;;;;;;;5.35;1.65;;;;;;;11.94;73.08;101218.83;1592207;87;25855;-75
2021/06/14 00:25:52;;;;;;;5.10;2.85;;;;;;;11.91;73.05;101208.47;1631288;84;25797;-75
2021/06/14 00:28:20;;;;;;;7.30;2.00;;;;;;;11.92;73.09;101211.47;1637627;84;25831;-75
2021/06/14 00:30:50;;;;;;;7.37;1.75;;;;;;;11.93;73.14;101220.67;1672015;84;25918;-76
2021/06/14 00:33:20;;;;;;;5.00;2.00;;;;;;;11.90;73.16;101220.21;1648475;84;27351;-75
2021/06/14 00:35:48;;;;;;;7.83;2.22;;;;;;;11.87;73.29;101227.30;1629092;84;25807;-75
2021/06/14 00:38:16;;;;;;;7.42;2.00;;;;;;;11.85;73.26;101222.59;1631152;84;26115;-76
2021/06/14 00:40:44;;;;;;;5.45;1.87;;;;;;;11.83;73.36;101221.94;1670934;82;26002;-75
2021/06/14 00:43:12;;;;;;;8.30;2.40;;;;;;;11.82;73.40;101226.99;1647313;84;25853;-75
2021/06/14 00:45:44;;;;;;;6.95;1.77;;;;;;;11.82;73.53;101228.34;1598085;84;27504;-75
2021/06/14 00:48:13;;;;;;;5.20;2.30;;;;;;;11.80;73.52;101212.92;1621921;86;26535;-75
2021/06/14 00:50:54;;;;;;;3.58;1.70;;;;;;;11.79;73.52;101218.79;1618623;85;25904;-75
2021/06/14 00:53:33;;;;;;;3.90;1.80;;;;;;;11.76;73.52;101216.98;1656176;85;25650;-75
2021/06/14 00:56:05;;;;;;;9.18;1.77;;;;;;;11.71;73.62;101212.64;1647829;85;26011;-75
2021/06/14 00:58:34;;;;;;;10.82;2.12;;;;;;;11.69;73.71;101216.02;1621849;86;28351;-75
2021/06/14 01:01:04;;;;;;;7.92;2.02;;;;;;;11.69;73.82;101228.09;1678977;82;26035;-75
2021/06/14 01:03:32;;;;;;;7.65;2.12;;;;;;;11.63;73.92;101230.97;1644614;85;25911;-75
2021/06/14 01:06:03;;;;;;;6.37;2.08;;;;;;;11.63;74.00;101228.28;1627473;84;25841;-75
2021/06/14 01:08:36;;;;;;;5.60;1.90;;;;;;;11.61;74.08;101224.94;1656867;84;25722;-75
2021/06/14 01:11:30;;;;;;;8.00;2.25;;;;;;;11.58;74.03;101223.45;1623668;86;28209;-75
2021/06/14 01:14:37;;;;;;;4.78;1.90;;;;;;;11.53;74.20;101213.74;1589154;87;26086;-75
2021/06/14 01:17:55;;;;;;;6.03;1.90;;;;;;;11.49;74.32;101212.93;1647544;85;25851;-75
2021/06/14 01:21:02;;;;;;;6.17;2.10;;;;;;;11.45;74.38;101207.09;1623479;86;25923;-75
2021/06/14 01:23:50;;;;;;;5.20;2.20;;;;;;;11.45;74.49;101209.78;1680259;83;25799;-75
2021/06/14 01:26:21;;;;;;;3.87;1.72;;;;;;;11.42;74.46;101209.27;1651885;84;27408;-75
2021/06/14 01:28:58;;;;;;;7.67;2.47;;;;;;;11.40;74.55;101216.67;1633010;84;26538;-75
2021/06/14 01:31:30;;;;;;;5.65;1.67;;;;;;;11.38;74.57;101215.52;1648351;84;26508;-75
2021/06/14 01:33:58;;;;;;;8.45;2.25;;;;;;;11.39;74.52;101218.54;1614452;88;26525;-75
2021/06/14 01:36:35;;;;;;;7.03;1.80;;;;;;;11.40;74.69;101213.98;1604994;86;25801;-75
2021/06/14 01:39:06;;;;;;;7.75;2.08;;;;;;;11.42;74.64;101206.09;1668095;83;28561;-75
2021/06/14 01:41:35;;;;;;;6.57;2.27;;;;;;;11.47;74.63;101212.27;1668929;83;26583;-75
2021/06/14 01:44:06;;;;;;;4.47;2.12;;;;;;;11.49;74.62;101216.45;1677097;84;25875;-75
2021/06/14 01:46:39;;;;;;;6.60;2.12;;;;;;;11.45;74.41;101219.17;1655581;84;26433;-75
2021/06/14 01:49:08;;;;;;;6.85;1.87;;;;;;;11.44;74.56;101220.16;1652071;85;25804;-75
2021/06/14 01:51:39;;;;;;;5.97;2.05;;;;;;;11.47;74.58;101221.66;1635738;84;27499;-75
2021/06/14 01:54:07;;;;;;;6.95;1.90;;;;;;;11.52;74.62;101221.48;1674251;84;25874;-75
2021/06/14 01:56:43;;;;;;;7.20;2.35;;;;;;;11.52;74.44;101221.98;1605505;86;25904;-75
2021/06/14 01:59:33;;;;;;;7.62;1.98;;;;;;;11.54;74.44;101216.77;1633508;86;26484;-75
2021/06/14 02:02:04;;;;;;;8.78;1.98;;;;;;;11.53;74.35;101217.77;1655663;84;25957;-75
2021/06/14 02:04:35;;;;;;;6.90;2.45;;;;;;;11.47;74.30;101219.83;1678030;84;27482;-75
2021/06/14 02:07:09;;;;;;;8.10;2.42;;;;;;;11.47;74.51;101224.34;1685012;83;25952;-75
2021/06/14 02:09:37;;;;;;;7.05;1.80;;;;;;;11.43;74.52;101219.85;1612217;85;33172;-76
2021/06/14 02:12:08;;;;;;;4.25;2.10;;;;;;;11.39;74.46;101219.04;1579093;87;26056;-75
2021/06/14 02:14:40;;;;;;;7.05;2.80;;;;;;;11.36;74.59;101223.40;1660188;85;26576;-75
2021/06/14 02:17:14;;;;;;;6.33;2.22;;;;;;;11.38;74.74;101218.20;1624586;84;28092;-75
2021/06/14 02:19:49;;;;;;;6.08;2.85;;;;;;;11.38;74.75;101216.02;1658705;85;25832;-75
2021/06/14 02:22:19;;;;;;;7.70;2.42;;;;;;;11.37;74.77;101218.38;1638200;86;25833;-76
2021/06/14 02:24:48;;;;;;;;;;;;;;;11.36;74.72;101217.54;1662641;85;26935;-75
2021/06/14 02:27:17;;;;;;;6.42;2.37;;;;;;;11.37;74.86;101221.06;1626567;85;25806;-75
2021/06/14 02:29:45;;;;;;;7.78;2.58;;;;;;;11.31;74.77;101221.78;1628362;85;27476;-75
2021/06/14 02:32:13;;;;;;;7.22;2.42;;;;;;;11.31;74.98;101222.59;1651140;85;25835;-76
2021/06/14 02:34:46;;;;;;;7.30;2.62;;;;;;;11.33;74.87;101220.56;1660930;85;25747;-75
2021/06/14 02:37:13;;;;;;;7.83;4.10;;;;;;;11.33;74.92;101221.91;1648918;83;25823;-75
2021/06/14 02:39:43;;;;;;;8.97;3.80;;;;;;;11.36;74.89;101222.06;1653013;85;25925;-75
2021/06/14 02:42:11;;;;;;;10.10;4.20;;;;;;;11.38;74.89;101221.38;1640793;85;27660;-75
2021/06/14 02:44:41;;;;;;;10.98;3.60;;;;;;;11.43;74.92;101219.85;1651964;85;25795;-75
2021/06/14 02:47:11;;;;;;;8.45;3.75;;;;;;;11.46;74.85;101220.82;1622803;83;25710;-75
2021/06/14 02:49:41;;;;;;;11.28;4.35;;;;;;;11.48;74.79;101222.00;1658265;83;25827;-75
2021/06/14 02:52:11;;;;;;;5.20;2.80;;;;;;;11.50;74.82;101229.38;1672566;83;25598;-75
2021/06/14 02:54:45;;;;;;;7.90;2.98;;;;;;;11.53;74.83;101227.16;1654678;85;27467;-75
2021/06/14 02:57:14;;;;;;;7.30;2.85;;;;;;;11.53;74.80;101225.81;1610758;86;26656;-75
2021/06/14 02:59:45;;;;;;;7.10;2.83;;;;;;;11.51;74.83;101224.31;1606395;86;26544;-75
2021/06/14 03:02:14;;;;;;;7.20;3.45;;;;;;;11.56;74.97;101230.00;1638723;85;26591;-75
2021/06/14 03:04:41;;;;;;;9.90;2.40;;;;;;;11.60;74.90;101223.25;1614624;87;26667;-75
2021/06/14 03:07:08;;;;;;;7.00;2.52;;;;;;;11.61;74.74;101228.97;1611890;87;27515;-76
2021/06/14 03:09:36;;;;;;;6.05;3.02;;;;;;;11.59;74.82;101231.80;1656156;84;26087;-76
2021/06/14 03:12:05;;;;;;;8.80;2.50;;;;;;;11.56;74.86;101241.57;1680774;83;25697;-75
2021/06/14 03:14:33;;;;;;;5.30;2.37;;;;;;;11.60;74.94;101239.36;1684793;84;26592;-75
2021/06/14 03:17:04;;;;;;;5.15;2.65;;;;;;;11.60;74.96;101239.36;1615541;84;25812;-75
2021/06/14 03:19:32;;;;;;;7.05;2.33;;;;;;;11.67;74.91;101238.17;1625171;84;28038;-75
2021/06/14 03:22:05;;;;;;;8.18;3.12;;;;;;;11.74;74.90;101243.16;1680058;84;25817;-75
2021/06/14 03:24:34;;;;;;;6.00;2.75;;;;;;;11.77;74.80;101245.47;1656418;84;25834;-75
2021/06/14 03:27:03;;;;;;;8.60;2.90;;;;;;;11.76;74.79;101244.63;1676347;84;25898;-76
2021/06/14 03:29:32;;;;;;;8.95;3.02;;;;;;;11.82;74.89;101241.75;1638435;83;25812;-76
2021/06/14 03:32:02;;;;;;;9.13;3.15;;;;;;;11.86;74.83;101235.86;1658289;84;27441;-75
2021/06/14 03:34:32;;;;;;;6.67;2.98;;;;;;;11.96;75.07;101234.25;1660201;84;25997;-75
2021/06/14 03:37:00;;;;;;;7.65;2.70;;;;;;;11.98;74.79;101245.14;1632603;85;25872;-75
2021/06/14 03:39:27;;;;;;;5.15;2.72;;;;;;;12.01;74.90;101241.27;1652254;85;26381;-76
2021/06/14 03:41:55;;;;;;;6.17;2.70;;;;;;;11.99;74.92;101249.52;1680456;84;25937;-76
2021/06/14 03:44:25;;;;;;;8.55;2.65;;;;;;;11.96;75.05;101257.91;1660995;84;28935;-76
2021/06/14 03:46:52;;;;;;;12.40;2.95;;;;;;;11.97;75.11;101254.73;1665147;84;26132;-75
2021/06/14 03:49:21;;;;;;;7.03;2.98;;;;;;;12.01;75.23;101260.91;1657407;84;25841;-75
2021/06/14 03:51:50;;;;;;;6.70;2.60;;;;;;;12.01;75.17;101258.72;1682032;83;26339;-75
2021/06/14 03:54:17;;;;;;;6.37;2.85;;;;;;;12.00;75.22;101252.51;1638685;84;25612;-75
2021/06/14 03:56:44;;;;;;;10.23;2.77;;;;;;;11.98;75.46;101249.67;1649152;85;28383;-75
2021/06/14 03:59:12;;;;;;;11.33;3.17;;;;;;;12.00;75.64;101249.83;1658431;84;26394;-76
2021/06/14 04:01:39;;;;;;;9.78;2.70;;;;;;;12.02;75.71;101246.45;1674498;83;25714;-75
2021/06/14 04:04:24;;;;;;;7.60;3.35;;;;;;;12.06;76.07;101246.41;1676633;84;25814;-75
2021/06/14 04:06:35;;;;;;;10.05;3.77;;;;;;;12.11;75.87;101253.43;1643899;84;25968;-76
2021/06/14 04:09:04;;;;;;;8.85;3.50;;;;;;;12.20;76.04;101249.66;1654862;84;27330;-75
2021/06/14 04:11:31;;;;;;;7.08;2.70;;;;;;;12.25;75.90;101249.94;1667964;84;26574;-76
2021/06/14 04:13:59;;;;;;;8.38;3.17;;;;;;;12.26;75.91;101254.30;1635908;84;26057;-75
2021/06/14 04:16:26;;;;;;;5.95;2.90;;;;;;;12.32;75.94;101249.55;1655302;84;26286;-76
2021/06/14 04:18:53;;;;;;;8.78;3.45;;;;;;;12.36;75.90;101257.56;1647893;84;25919;-76
2021/06/14 04:21:20;;;;;;;9.83;3.17;;;;;;;12.41;75.96;101262.39;1672922;84;28253;-77
2021/06/14 04:23:47;;;;;;;10.20;3.90;;;;;;;12.46;75.88;101258.66;1649102;84;25802;-76
2021/06/14 04:26:14;;;;;;;10.28;3.30;;;;;;;12.51;76.01;101264.83;1664629;84;25820;-76
2021/06/14 04:28:41;;;;;;;6.12;2.90;;;;;;;12.59;75.92;101268.27;1631724;84;26562;-76
2021/06/14 04:31:09;;;;;;;10.50;3.05;;;;;;;12.65;75.95;101272.91;1651114;85;26612;-76
2021/06/14 04:33:36;;;;;;;8.58;2.98;;;;;;;12.76;75.93;101268.94;1626060;84;27575;-75
2021/06/14 04:36:04;;;;;;;8.45;2.95;;;;;;;12.82;75.71;101277.09;1646417;84;25976;-77
2021/06/14 04:38:33;;;;;;;11.08;4.12;;;;;;;12.90;75.82;101278.34;1655086;84;25854;-76
2021/06/14 04:41:01;;;;;;;9.00;3.08;;;;;;;12.98;75.75;101272.86;1676849;83;26603;-76
2021/06/14 04:43:28;;;;;;;8.18;2.92;;;;;;;13.03;75.17;101279.03;1635195;84;25829;-76
2021/06/14 04:45:55;;;;;;;9.00;3.58;;;;;;;13.05;75.59;101272.48;1632095;84;27624;-76
2021/06/14 04:48:22;;;;;;;9.88;3.20;;;;;;;13.10;75.54;101276.80;1651359;85;25960;-76
2021/06/14 04:50:50;;;;;;;7.55;3.05;;;;;;;13.12;75.51;101273.41;1673819;84;25631;-76
2021/06/14 04:53:17;;;;;;;8.73;3.77;;;;;;;13.22;75.66;101273.61;1626727;85;26703;-76
2021/06/14 04:55:44;;;;;;;12.03;4.15;;;;;;;13.33;75.85;101275.33;1621754;84;25832;-76
2021/06/14 04:58:11;;;;;;;11.28;3.45;;;;;;;13.44;75.53;101277.54;1624250;84;28011;-76
2021/06/14 05:00:38;;;;;;;10.50;3.30;;;;;;;13.51;74.97;101285.19;1667345;84;26368;-76
2021/06/14 05:03:05;;;;;;;5.75;3.20;;;;;;;13.57;75.11;101278.20;1631873;84;25742;-76
2021/06/14 05:05:33;;;;;;;6.35;3.20;;;;;;;13.67;74.91;101280.91;1624517;86;26388;-76
2021/06/14 05:08:00;;;;;;;5.97;2.83;;;;;;;13.78;75.24;101283.61;1618283;84;25875;-76
2021/06/14 05:10:27;;;;;;;7.95;3.72;;;;;;;13.89;75.55;101271.84;1653602;84;27577;-76
2021/06/14 05:12:54;;;;;;;8.63;3.05;;;;;;;14.04;75.60;101267.73;1628172;84;26042;-79
2021/06/14 05:15:21;;;;;;;13.10;3.25;;;;;;;14.15;74.88;101275.30;1649025;84;25865;-76
2021/06/14 05:17:48;;;;;;;8.08;3.08;;;;;;;14.25;74.65;101269.56;1651128;84;26617;-76
2021/06/14 05:20:17;;;;;;;8.40;3.30;;;;;;;14.30;74.47;101265.31;1671371;84;25731;-76
2021/06/14 05:22:44;;;;;;;10.05;3.58;;;;;;;14.37;74.25;101258.09;1624181;85;27602;-76
2021/06/14 05:25:13;;;;;;;8.53;2.83;;;;;;;14.46;73.82;101256.08;1642197;85;25972;-76
2021/06/14 05:27:40;;;;;;;7.37;2.60;;;;;;;14.49;73.75;101264.63;1601290;85;25873;-76
2021/06/14 05:30:10;;;;;;;9.53;3.25;;;;;;;14.56;73.94;101266.84;1667259;85;25983;-76
2021/06/14 05:32:38;;;;;;;8.73;3.52;;;;;;;14.64;73.77;101274.80;1639417;84;25780;-76
2021/06/14 05:35:08;;;;;;;6.58;3.33;;;;;;;14.71;73.32;101271.31;1645799;84;27465;-76
2021/06/14 05:37:36;;;;;;;11.03;3.42;;;;;;;14.76;73.39;101278.28;1645950;85;26026;-76
2021/06/14 05:40:07;;;;;;;7.50;3.10;;;;;;;14.81;73.30;101269.93;1669902;84;26020;-76
2021/06/14 05:42:34;;;;;;;;;;;;;;;14.88;73.18;101276.20;1632987;84;26112;-76
2021/06/14 05:45:02;;;;;;;7.60;2.70;;;;;;;14.97;73.28;101276.34;1648972;84;25812;-76
2021/06/14 05:47:29;;;;;;;8.83;3.45;;;;;;;15.05;73.21;101277.55;1696119;83;28225;-76
2021/06/14 05:49:56;;;;;;;5.17;2.58;;;;;;;15.18;73.40;101288.93;1667421;84;26285;-76
2021/06/14 05:52:23;;;;;;;6.15;3.08;;;;;;;15.30;72.98;101284.61;1625622;84;25895;-76
2021/06/14 05:54:51;;;;;;;10.32;3.60;;;;;;;15.40;72.51;101287.25;1608550;84;26733;-76
2021/06/14 05:57:18;;;;;;;6.80;3.00;;;;;;;15.47;72.33;101289.18;1671295;84;25802;-76
2021/06/14 05:59:46;;;;;;;6.60;2.80;;;;;;;15.57;72.44;101286.41;1677142;84;27914;-76
2021/06/14 06:02:13;;;;;;;10.93;3.17;;;;;;;15.67;72.38;101288.23;1632151;85;25805;-76
2021/06/14 06:04:40;;;;;;;5.92;2.60;;;;;;;15.74;72.11;101283.66;1653054;84;25973;-76
2021/06/14 06:07:07;;;;;;;9.40;2.80;;;;;;;15.82;71.68;101286.71;1652998;85;26598;-77
2021/06/14 06:09:34;;;;;;;7.72;2.40;;;;;;;15.84;70.45;101285.47;1677877;82;25814;-76
2021/06/14 06:12:02;;;;;;;7.50;2.75;;;;;;;15.87;71.28;101292.31;1657392;84;28254;-76
2021/06/14 06:14:29;;;;;;;4.83;2.05;;;;;;;15.95;70.83;101286.74;1634240;85;26671;-76
2021/06/14 06:16:56;;;;;;;7.70;2.20;;;;;;;16.02;71.05;101280.81;1679060;84;25877;-77
2021/06/14 06:19:23;;;;;;;9.55;2.67;;;;;;;16.11;70.06;101286.34;1680709;84;25963;-76
2021/06/14 06:21:50;;;;;;;7.97;2.98;;;;;;;16.16;69.70;101286.56;1636067;85;25835;-77
2021/06/14 06:24:17;;;;;;;8.60;2.10;;;;;;;16.20;69.80;101290.52;1633669;85;27512;-76
2021/06/14 06:26:44;;;;;;;5.90;2.05;;;;;;;16.26;69.47;101295.60;1676772;84;25822;-76
2021/06/14 06:29:11;;;;;;;10.10;2.60;;;;;;;16.34;69.22;101295.42;1647071;84;26694;-77
2021/06/14 06:31:38;;;;;;;9.15;2.45;;;;;;;16.38;68.62;101290.72;1598878;86;25937;-76
2021/06/14 06:34:05;;;;;;;6.10;2.30;;;;;;;16.42;68.68;101289.29;1611197;85;26605;-76
2021/06/14 06:36:32;;;;;;;5.85;2.52;;;;;;;16.50;68.24;101288.27;1664139;84;27461;-76
2021/06/14 06:38:59;;;;;;;5.47;1.72;;;;;;;16.50;68.25;101286.91;1671167;84;25540;-77
2021/06/14 06:41:26;;;;;;;7.50;2.00;;;;;;;16.57;68.46;101274.23;1595775;87;25899;-76
2021/06/14 06:43:53;;;;;;;6.80;2.25;;;;;;;16.66;67.79;101277.84;1580394;86;25885;-76
2021/06/14 06:46:20;;;;;;;3.12;2.02;;;;;;;16.77;67.79;101277.72;1673785;84;25814;-77
2021/06/14 06:48:47;;;;;;;5.72;2.22;;;;;;;16.85;67.49;101276.17;1678072;84;27574;-76
2021/06/14 06:51:14;;;;;;;5.30;2.62;;;;;;;16.91;67.45;101280.73;1604168;85;25388;-76
2021/06/14 06:53:41;;;;;;;8.30;2.30;;;;;;;16.96;66.93;101272.79;1633222;86;25909;-76
2021/06/14 06:56:08;;;;;;;5.83;2.02;;;;;;;17.00;66.17;101279.98;1646868;84;26310;-77
2021/06/14 06:58:35;;;;;;;6.62;2.10;;;;;;;17.03;65.98;101278.19;1651180;84;25853;-76
2021/06/14 07:01:03;;;;;;;4.28;2.00;;;;;;;17.08;65.33;101284.65;1640946;84;27632;-76
2021/06/14 07:03:30;;;;;;;5.42;2.15;;;;;;;17.14;65.52;101283.80;1672086;84;25779;-77
2021/06/14 07:05:57;;;;;;;5.17;2.17;;;;;;;17.22;65.63;101282.71;1641938;85;26631;-76
2021/06/14 07:08:24;;;;;;;2.55;1.87;;;;;;;17.31;64.93;101282.80;1597980;87;26461;-76
2021/06/14 07:10:51;;;;;;;5.25;1.85;;;;;;;17.39;64.24;101289.31;1627935;84;25882;-77
2021/06/14 07:13:18;;;;;;;4.00;1.80;;;;;;;17.44;64.33;101280.03;1653294;84;28307;-76
2021/06/14 07:15:46;;;;;;;6.58;2.25;;;;;;;17.52;63.98;101283.36;1677403;84;25828;-76
2021/06/14 07:18:13;;;;;;;3.72;2.20;;;;;;;17.54;64.28;101281.27;1630875;85;25821;-76
2021/06/14 07:20:40;;;;;;;8.23;2.15;;;;;;;17.60;64.36;101278.20;1631848;84;25931;-76
2021/06/14 07:23:07;;;;;;;4.92;1.80;;;;;;;17.64;63.04;101282.17;1634538;87;25766;-77
2021/06/14 07:25:34;;;;;;;6.30;1.70;;;;;;;17.67;62.83;101285.27;1616953;87;27823;-76
2021/06/14 07:28:01;;;;;;;7.58;2.00;;;;;;;17.68;62.78;101285.56;1630517;84;26501;-76
2021/06/14 07:30:30;;;;;;;4.05;1.85;;;;;;;17.71;62.87;101291.08;1628839;84;25394;-76
2021/06/14 07:32:57;;;;;;;5.60;2.20;;;;;;;17.74;62.19;101287.95;1634148;86;25862;-76
2021/06/14 07:35:24;;;;;;;5.78;2.10;;;;;;;17.78;63.77;101293.23;1614322;87;26055;-77
2021/06/14 07:37:51;;;;;;;7.20;2.17;;;;;;;17.92;63.58;101290.74;1589521;86;28185;-77
2021/06/14 07:40:18;;;;;;;3.35;1.72;;;;;;;18.02;63.21;101291.12;1608153;85;25870;-76
2021/06/14 07:42:45;;;;;;;5.05;1.45;;;;;;;18.11;63.29;101287.62;1626911;86;26593;-77
2021/06/14 07:45:20;;;;;;;3.85;1.40;;;;;;;18.18;62.80;101287.86;1623854;85;26515;-76
2021/06/14 07:47:43;;;;;;;6.25;2.02;;;;;;;18.21;61.69;101283.37;1625328;85;25838;-76
2021/06/14 07:50:10;;;;;;;6.47;1.70;;;;;;;18.24;60.53;101283.46;1604346;88;27567;-76
2021/06/14 07:52:37;;;;;;;7.05;2.65;;;;;;;18.28;61.59;101278.70;1624183;85;26005;-76
2021/06/14 07:55:05;;;;;;;5.97;2.20;;;;;;;18.37;62.08;101281.97;1661343;84;26569;-76
2021/06/14 07:57:32;;;;;;;4.05;2.05;;;;;;;18.51;62.57;101281.38;1631314;85;26634;-76
2021/06/14 07:59:59;;;;;;;5.70;1.75;;;;;;;18.58;61.71;101282.16;1631598;84;25796;-77
2021/06/14 08:02:26;;;;;;;5.70;2.02;;;;;;;18.59;61.26;101277.86;1654111;84;28315;-77
2021/06/14 08:04:53;;;;;;;4.47;2.20;;;;;;;18.63;61.58;101283.66;1670629;83;26576;-77
2021/06/14 08:07:20;;;;;;;5.15;1.92;;;;;;;18.63;60.30;101279.07;1621529;86;26024;-76
2021/06/14 08:09:54;;;;;;;4.30;1.60;;;;;;;18.61;59.55;101283.89;1611588;85;26553;-76
2021/06/14 08:12:16;;;;;;;3.67;1.87;;;;;;;18.61;59.75;101278.98;1644077;85;26374;-77
2021/06/14 08:14:43;;;;;;;5.70;1.85;;;;;;;18.67;60.31;101282.19;1591369;87;27394;-77
2021/06/14 08:17:10;;;;;;;3.83;1.82;;;;;;;18.74;59.54;101273.44;1599375;86;26034;-77
2021/06/14 08:19:49;;;;;;;4.53;1.80;;;;;;;18.78;59.83;101280.08;1592232;86;25624;-76
2021/06/14 08:25:07;;;;;;;9.93;2.80;;;;;;;18.89;60.41;101271.20;1640180;85;26417;-77
2021/06/14 08:27:38;;;;;;;5.20;2.60;;;;;;;18.92;60.18;101286.53;1636065;85;27558;-76
2021/06/14 08:30:13;;;;;;;5.20;2.27;;;;;;;18.92;60.27;101279.75;1633563;85;26509;-77
2021/06/14 08:32:41;;;;;;;4.47;2.10;;;;;;;18.97;60.31;101277.69;1642852;85;25791;-77
2021/06/14 08:35:15;;;;;;;4.22;2.22;;;;;;;19.01;60.27;101284.35;1595410;87;26384;-76
2021/06/14 08:37:46;;;;;;;4.33;2.00;;;;;;;19.08;60.44;101279.66;1638854;85;25929;-76
2021/06/14 08:40:16;;;;;;;3.90;1.77;;;;;;;19.17;60.60;101279.67;1587492;87;28245;-76
2021/06/14 08:42:43;;;;;;;4.23;1.73;;;;;;;19.25;59.56;101282.07;1626241;85;25979;-76
2021/06/14 08:45:13;;;;;;;6.60;2.35;;;;;;;19.29;59.49;101272.96;1570275;87;25935;-77
2021/06/14 08:47:42;;;;;;;3.40;1.82;;;;;;;19.33;59.11;101276.88;1603451;85;25879;-76
2021/06/14 08:50:14;;;;;;;4.37;1.87;;;;;;;19.35;59.15;101276.99;1572615;87;26680;-77
2021/06/14 08:52:42;;;;;;;4.37;1.52;;;;;;;19.42;59.18;101272.28;1636365;85;27640;-77
2021/06/14 08:55:12;;;;;;;6.22;1.92;;;;;;;19.53;59.18;101267.44;1621039;86;26425;-77
2021/06/14 08:57:40;;;;;;;;;;;;;;;19.55;58.38;101262.60;1651758;85;26511;-76
2021/06/14 09:00:11;;;;;;;6.95;1.90;;;;;;;19.57;58.34;101266.44;1631523;85;25869;-77
2021/06/14 09:02:39;;;;;;;4.05;2.00;;;;;;;19.69;58.99;101276.34;1653612;85;25916;-76
2021/06/14 09:05:07;;;;;;;7.92;2.62;;;;;;;19.72;57.76;101264.98;1602233;85;27520;-77
2021/06/14 09:07:35;;;;;;;4.55;1.40;;;;;;;19.65;58.03;101268.31;1597646;87;25879;-77
2021/06/14 09:10:04;;;;;;;5.58;1.55;;;;;;;19.68;59.01;101264.31;1614277;85;25758;-77
2021/06/14 09:12:41;;;;;;;5.50;2.10;;;;;;;19.80;58.71;101271.45;1633861;85;25897;-77
2021/06/14 09:15:26;;;;;;;5.72;2.00;;;;;;;19.90;56.63;101267.66;1607026;84;25845;-76
2021/06/14 09:18:26;;;;;;;6.78;1.82;;;;;;;19.90;57.40;101270.38;1672019;84;33744;-76
2021/06/14 09:21:18;;;;;;;3.17;1.30;;;;;;;19.94;57.16;101264.78;1660997;84;25912;-77
2021/06/14 09:23:53;;;;;;;6.78;2.00;;;;;;;19.98;54.77;101269.21;1660452;84;25354;-77
2021/06/14 09:26:34;;;;;;;2.80;1.42;;;;;;;19.98;55.02;101272.77;1653342;84;26611;-76
2021/06/14 09:29:09;;;;;;;3.95;1.20;;;;;;;19.99;54.21;101266.25;1679882;84;25999;-76
2021/06/14 09:32:00;;;;;;;3.92;1.42;;;;;;;20.04;54.35;101260.67;1662636;84;27588;-76
2021/06/14 09:34:39;;;;;;;6.17;1.50;;;;;;;20.09;55.17;101259.42;1681763;83;26024;-76
2021/06/14 09:37:10;;;;;;;3.42;1.70;;;;;;;20.12;55.00;101263.88;1624492;84;25905;-76
2021/06/14 09:39:47;;;;;;;3.10;1.37;;;;;;;20.15;53.47;101257.13;1593038;88;25924;-77
2021/06/14 09:42:21;;;;;;;4.45;1.45;;;;;;;20.09;53.59;101253.46;1648004;84;26039;-77
2021/06/14 09:44:53;;;;;;;3.12;1.25;;;;;;;20.16;52.63;101256.08;1669462;84;27514;-76
2021/06/14 09:47:21;;;;;;;4.65;1.47;;;;;;;20.23;54.03;101252.20;1634483;84;25836;-77
2021/06/14 09:50:02;;;;;;;2.75;1.60;;;;;;;20.36;53.32;101249.27;1651069;85;25910;-76
2021/06/14 09:52:29;;;;;;;6.20;1.80;;;;;;;20.42;53.76;101246.16;1676592;83;25775;-76
2021/06/14 09:55:15;;;;;;;4.55;1.45;;;;;;;20.45;53.19;101245.14;1681466;84;25769;-76
2021/06/14 09:57:41;;;;;;;4.97;1.57;;;;;;;20.51;53.65;101233.30;1631775;85;28266;-77
2021/06/14 10:00:12;;;;;;;5.12;1.90;;;;;;;20.56;52.47;101247.05;1592943;86;25897;-77
2021/06/14 10:02:40;;;;;;;3.65;1.52;;;;;;;20.45;52.37;101237.50;1669313;84;25864;-76
2021/06/14 10:05:21;;;;;;;1.92;1.17;;;;;;;20.42;52.59;101243.44;1635028;87;25878;-76
2021/06/14 10:07:51;;;;;;;5.50;1.20;;;;;;;20.44;50.60;101238.06;1618118;85;25829;-76
2021/06/14 10:10:28;;;;;;;4.03;1.70;;;;;;;20.48;50.98;101235.69;1636936;84;27465;-77
2021/06/14 10:12:58;;;;;;;2.87;1.20;;;;;;;20.56;52.84;101232.08;1667684;84;25983;-76
2021/06/14 10:15:39;;;;;;;3.55;1.12;;;;;;;20.65;52.02;101233.91;1642859;87;25947;-77
2021/06/14 10:18:09;;;;;;;4.72;1.25;;;;;;;20.71;52.39;101227.51;1638108;84;25832;-76
2021/06/14 10:20:38;;;;;;;3.95;1.40;;;;;;;20.82;49.63;101225.84;1675398;83;25893;-77
2021/06/14 10:23:07;;;;;;;4.03;1.52;;;;;;;20.91;51.21;101231.22;1655245;84;28505;-76
2021/06/14 10:25:36;;;;;;;2.27;1.50;;;;;;;20.95;51.11;101233.23;1636630;86;25927;-77
2021/06/14 10:28:05;;;;;;;3.25;1.37;;;;;;;21.01;50.76;101228.71;1637257;84;26416;-77
2021/06/14 10:30:33;;;;;;;2.90;1.82;;;;;;;21.08;51.31;101228.09;1641021;86;26516;-77
2021/06/14 10:33:04;;;;;;;3.00;1.62;;;;;;;21.21;51.06;101222.38;1668198;84;25768;-77
2021/06/14 10:35:31;;;;;;;2.92;1.82;;;;;;;21.31;50.16;101215.75;1692317;84;28663;-77
2021/06/14 10:38:03;;;;;;;4.12;1.30;;;;;;;21.21;48.48;101230.55;1669089;84;25344;-76
2021/06/14 10:40:30;;;;;;;2.62;1.40;;;;;;;21.01;46.12;101232.27;1691648;83;25878;-76
2021/06/14 10:42:58;;;;;;;3.70;1.22;;;;;;;20.96;48.04;101230.78;1683991;84;25949;-76
2021/06/14 10:45:28;;;;;;;2.52;1.10;;;;;;;21.04;47.94;101214.66;1641672;86;26480;-76
2021/06/14 10:47:58;;;;;;;1.92;1.35;;;;;;;21.10;48.26;101211.80;1640235;84;27614;-76
2021/06/14 10:50:29;;;;;;;4.85;1.30;;;;;;;21.25;48.58;101217.56;1620524;84;25941;-76
2021/06/14 10:52:56;;;;;;;2.05;1.05;;;;;;;21.33;47.93;101214.97;1669978;84;25836;-76
2021/06/14 10:55:30;;;;;;;3.95;1.55;;;;;;;21.40;47.37;101212.94;1625717;84;26548;-77
2021/06/14 10:57:57;;;;;;;5.03;1.42;;;;;;;21.40;48.66;101217.03;1647965;85;25934;-77
2021/06/14 11:00:34;;;;;;;4.17;1.00;;;;;;;21.40;48.08;101208.86;1671102;84;27615;-77
2021/06/14 11:03:08;;;;;;;3.92;1.32;;;;;;;21.30;47.28;101208.63;1695268;83;25871;-76
2021/06/14 11:05:48;;;;;;;2.65;1.22;;;;;;;21.14;47.03;101211.61;1648507;83;25431;-76
2021/06/14 11:08:23;;;;;;;5.17;1.50;;;;;;;21.03;47.82;101213.82;1665317;84;25796;-77
2021/06/14 11:11:01;;;;;;;1.62;1.05;;;;;;;21.09;47.06;101204.68;1662076;84;26551;-77
2021/06/14 11:13:29;;;;;;;3.55;1.20;;;;;;;21.25;47.62;101207.19;1678288;84;27632;-77
2021/06/14 11:15:58;;;;;;;3.30;1.60;;;;;;;21.38;47.13;101205.55;1607228;84;26099;-76
2021/06/14 11:18:32;;;;;;;2.20;1.20;;;;;;;21.48;47.87;101204.38;1636480;85;25987;-76
2021/06/14 11:21:15;;;;;;;2.02;1.42;;;;;;;21.45;47.02;101203.48;1668726;82;26755;-77
2021/06/14 11:23:45;;;;;;;3.08;1.55;;;;;;;21.29;47.34;101200.19;1635988;86;26240;-76
2021/06/14 11:26:19;;;;;;;2.15;1.37;;;;;;;21.18;45.98;101199.16;1629316;85;33778;-76
2021/06/14 11:28:46;;;;;;;3.58;1.32;;;;;;;21.11;45.46;101197.09;1673599;84;25980;-77
2021/06/14 11:31:21;;;;;;;5.35;1.32;;;;;;;21.18;46.07;101191.51;1646325;84;25968;-76
2021/06/14 11:33:51;;;;;;;3.22;1.02;;;;;;;21.35;48.06;101191.03;1668161;84;26367;-77
2021/06/14 11:36:26;;;;;;;2.80;1.10;;;;;;;21.56;47.17;101190.34;1635649;86;25776;-77
2021/06/14 11:38:56;;;;;;;2.47;1.02;;;;;;;21.44;45.59;101182.23;1651110;85;27469;-76
2021/06/14 11:41:32;;;;;;;1.52;1.20;;;;;;;21.30;46.42;101182.22;1610927;87;35192;-76